Time;durP1;ratioP1;P1;durP2;ratioP2;P2;SDS_P1;SDS_P2;PMS_P1;PMS_P2;Temp;Humidity;BMP_temperature;BMP_pressure;BME280_temperature;BME280_humidity;BME280_pressure;Samples;Min_cycle;Max_cycle;Signal;HPM_P1;HPM_P2
2021/05/22 00:01:06;;;;;;;15.88;2.30;;;;;;;;;;4999974;28;20064;-60
2021/05/22 00:03:31;;;;;;;12.02;2.40;;;;;;;;;;4985101;28;22068;-60
2021/05/22 00:05:57;;;;;;;10.23;2.00;;;;;;;;;;5003586;28;20025;-59
2021/05/22 00:08:25;;;;;;;18.42;2.42;;;;;;;;;;5000439;28;20714;-59
2021/05/22 00:10:51;;;;;;;13.82;2.53;;;;;;;;;;4963472;28;20034;-59
2021/05/22 00:13:16;;;;;;;14.80;2.38;;;;;;;;;;4980047;28;20040;-61
2021/05/22 00:15:47;;;;;;;15.02;2.38;;;;;;;;;;5000240;28;20110;-59
2021/05/22 00:18:14;;;;;;;15.27;2.15;;;;;;;;;;4986695;28;20041;-59
2021/05/22 00:20:40;;;;;;;19.25;1.73;;;;;;;;;;4966711;28;20332;-60
2021/05/22 00:23:06;;;;;;;10.60;2.03;;;;;;;;;;4983970;28;21188;-60
2021/05/22 00:25:32;;;;;;;13.43;1.70;;;;;;;;;;4984323;28;20030;-60
2021/05/22 00:27:58;;;;;;;12.18;1.70;;;;;;;;;;5002967;28;20591;-58
2021/05/22 00:30:26;;;;;;;15.68;2.83;;;;;;;;;;4983251;28;20025;-58
2021/05/22 00:32:52;;;;;;;11.68;2.33;;;;;;;;;;4981679;28;20666;-60
2021/05/22 00:35:18;;;;;;;5.03;1.13;;;;;;;;;;4982288;28;20037;-59
2021/05/22 00:37:43;;;;;;;13.20;2.38;;;;;;;;;;4985489;28;20057;-59
2021/05/22 00:40:11;;;;;;;6.30;1.88;;;;;;;;;;5002879;28;20116;-59
2021/05/22 00:42:43;;;;;;;10.48;2.20;;;;;;;;;;4970771;28;20496;-58
2021/05/22 00:45:12;;;;;;;4.63;1.83;;;;;;;;;;5003304;28;20057;-59
2021/05/22 00:47:40;;;;;;;10.88;1.90;;;;;;;;;;4983709;28;20026;-59
2021/05/22 00:50:09;;;;;;;20.95;2.42;;;;;;;;;;5004396;28;20078;-58
2021/05/22 00:52:40;;;;;;;17.10;2.50;;;;;;;;;;4998476;28;20037;-59
2021/05/22 00:55:11;;;;;;;9.45;1.60;;;;;;;;;;4984852;28;20046;-58
2021/05/22 00:57:39;;;;;;;9.43;1.58;;;;;;;;;;4999040;28;20033;-59
2021/05/22 01:00:05;;;;;;;24.25;2.28;;;;;;;;;;5003603;28;20045;-59
2021/05/22 01:02:33;;;;;;;16.63;3.28;;;;;;;;;;4984818;28;20026;-58
2021/05/22 01:04:59;;;;;;;6.20;1.75;;;;;;;;;;4998947;28;20037;-60
2021/05/22 01:07:25;;;;;;;24.75;3.10;;;;;;;;;;4979919;28;20060;-59
2021/05/22 01:09:55;;;;;;;23.48;2.63;;;;;;;;;;4983409;28;20040;-59
2021/05/22 01:12:23;;;;;;;21.50;2.42;;;;;;;;;;4986172;28;20037;-59
2021/05/22 01:14:53;;;;;;;14.73;2.85;;;;;;;;;;4997798;28;20674;-60
2021/05/22 01:17:22;;;;;;;5.38;1.23;;;;;;;;;;4962156;28;20064;-59
2021/05/22 01:20:15;;;;;;;10.55;2.28;;;;;;;;;;5003307;28;20171;-59
2021/05/22 01:22:43;;;;;;;11.98;2.03;;;;;;;;;;4967970;28;20031;-59
2021/05/22 01:25:18;;;;;;;11.93;1.67;;;;;;;;;;4983885;28;20038;-59
2021/05/22 01:27:44;;;;;;;19.33;2.67;;;;;;;;;;5000490;28;20041;-59
2021/05/22 01:30:10;;;;;;;6.68;2.28;;;;;;;;;;4999831;28;20033;-60
2021/05/22 01:32:41;;;;;;;22.23;2.10;;;;;;;;;;4985223;28;20038;-60
2021/05/22 01:35:10;;;;;;;11.07;3.22;;;;;;;;;;5000447;28;20876;-60
2021/05/22 01:37:35;;;;;;;12.52;2.03;;;;;;;;;;5002505;28;20773;-59
2021/05/22 01:40:01;;;;;;;7.70;2.53;;;;;;;;;;4982598;28;20029;-59
2021/05/22 01:42:27;;;;;;;11.85;2.05;;;;;;;;;;5001053;28;20049;-59
2021/05/22 01:44:53;;;;;;;11.40;2.50;;;;;;;;;;4984512;28;20123;-59
2021/05/22 01:47:20;;;;;;;13.13;2.22;;;;;;;;;;4998027;28;20037;-59
2021/05/22 01:49:46;;;;;;;14.60;2.28;;;;;;;;;;4999987;28;20048;-59
2021/05/22 01:52:14;;;;;;;13.02;2.15;;;;;;;;;;4985517;28;20129;-59
2021/05/22 01:54:40;;;;;;;13.35;1.85;;;;;;;;;;4989993;28;20143;-60
2021/05/22 01:57:06;;;;;;;6.13;1.42;;;;;;;;;;5006470;28;20030;-60
2021/05/22 01:59:34;;;;;;;19.52;2.78;;;;;;;;;;5005841;28;20029;-59
2021/05/22 02:02:00;;;;;;;14.80;2.17;;;;;;;;;;5006723;28;20132;-59
2021/05/22 02:04:29;;;;;;;24.25;2.60;;;;;;;;;;5006758;28;20034;-59
2021/05/22 02:06:55;;;;;;;18.98;2.33;;;;;;;;;;5006314;28;20029;-59
2021/05/22 02:09:22;;;;;;;16.65;2.08;;;;;;;;;;4985149;28;20178;-60
2021/05/22 02:11:53;;;;;;;10.18;2.00;;;;;;;;;;4984705;28;20044;-60
2021/05/22 02:14:31;;;;;;;4.88;1.73;;;;;;;;;;4987394;28;20038;-60
2021/05/22 02:16:56;;;;;;;12.70;2.28;;;;;;;;;;5004927;28;20073;-62
2021/05/22 02:19:24;;;;;;;9.07;2.03;;;;;;;;;;5006094;28;20484;-60
2021/05/22 02:21:50;;;;;;;9.32;2.20;;;;;;;;;;4985696;28;20025;-60
2021/05/22 02:24:19;;;;;;;14.68;2.00;;;;;;;;;;5004582;28;20131;-60
2021/05/22 02:26:45;;;;;;;10.40;2.03;;;;;;;;;;4986122;28;20033;-60
2021/05/22 02:29:14;;;;;;;5.43;1.88;;;;;;;;;;4983854;28;20033;-59
2021/05/22 02:31:42;;;;;;;10.77;2.50;;;;;;;;;;4968298;28;20044;-59
2021/05/22 02:34:12;;;;;;;4.75;1.73;;;;;;;;;;4985559;28;20651;-60
2021/05/22 02:36:43;;;;;;;3.67;2.10;;;;;;;;;;5006179;28;20048;-60
2021/05/22 02:39:11;;;;;;;17.85;2.42;;;;;;;;;;4985996;28;20136;-61
2021/05/22 02:41:37;;;;;;;10.82;2.95;;;;;;;;;;4987271;28;20509;-60
2021/05/22 02:44:05;;;;;;;12.52;2.35;;;;;;;;;;4986590;28;20034;-60
2021/05/22 02:46:34;;;;;;;18.50;3.17;;;;;;;;;;5000605;28;20132;-60
2021/05/22 02:49:00;;;;;;;13.82;2.88;;;;;;;;;;5006660;28;20028;-59
2021/05/22 02:51:29;;;;;;;10.13;2.05;;;;;;;;;;4985870;28;20536;-59
2021/05/22 02:53:58;;;;;;;4.45;2.30;;;;;;;;;;5005651;28;20090;-58
2021/05/22 02:56:23;;;;;;;10.18;3.00;;;;;;;;;;5005581;28;20037;-58
2021/05/22 02:58:50;;;;;;;5.90;2.47;;;;;;;;;;4987864;28;20029;-58
2021/05/22 03:01:16;;;;;;;11.95;3.08;;;;;;;;;;5003697;28;20033;-59
2021/05/22 03:03:41;;;;;;;17.80;3.33;;;;;;;;;;4969585;28;20127;-59
2021/05/22 03:06:07;;;;;;;3.55;1.98;;;;;;;;;;4985203;28;20048;-59
2021/05/22 03:08:46;;;;;;;7.60;2.70;;;;;;;;;;5003153;28;20512;-59
2021/05/22 03:11:12;;;;;;;12.27;2.78;;;;;;;;;;4987038;28;20037;-58
2021/05/22 03:13:38;;;;;;;15.98;3.08;;;;;;;;;;5000024;28;20030;-59
2021/05/22 03:16:04;;;;;;;12.25;2.75;;;;;;;;;;5004652;28;20041;-58
2021/05/22 03:18:30;;;;;;;9.70;2.33;;;;;;;;;;5004436;28;22065;-60
2021/05/22 03:20:56;;;;;;;10.20;3.17;;;;;;;;;;5000976;28;20053;-59
2021/05/22 03:23:21;;;;;;;13.82;3.22;;;;;;;;;;4984195;28;20535;-59
2021/05/22 03:25:52;;;;;;;7.40;2.72;;;;;;;;;;5000214;28;20481;-58
2021/05/22 03:28:17;;;;;;;5.07;2.03;;;;;;;;;;4948337;28;20029;-59
2021/05/22 03:30:45;;;;;;;9.30;2.50;;;;;;;;;;4985451;28;20025;-58
2021/05/22 03:33:10;;;;;;;8.95;2.13;;;;;;;;;;4985482;28;20115;-60
2021/05/22 03:35:38;;;;;;;8.20;2.50;;;;;;;;;;4984470;28;20037;-59
2021/05/22 03:38:04;;;;;;;16.27;2.30;;;;;;;;;;5000506;28;20029;-60
2021/05/22 03:40:30;;;;;;;6.18;2.50;;;;;;;;;;4984471;28;20079;-60
2021/05/22 03:42:55;;;;;;;11.77;2.85;;;;;;;;;;5000376;28;20049;-60
2021/05/22 03:45:21;;;;;;;6.22;2.35;;;;;;;;;;5000257;28;20091;-59
2021/05/22 03:47:46;;;;;;;6.72;2.17;;;;;;;;;;4955147;28;20199;-60
2021/05/22 03:50:12;;;;;;;9.07;2.20;;;;;;;;;;4984562;28;20437;-59
2021/05/22 03:52:40;;;;;;;18.77;3.03;;;;;;;;;;4985782;28;20034;-60
2021/05/22 03:55:07;;;;;;;9.45;2.90;;;;;;;;;;4985555;28;20033;-60
2021/05/22 03:57:33;;;;;;;7.28;2.90;;;;;;;;;;4999517;28;20051;-59
2021/05/22 03:59:59;;;;;;;13.73;2.67;;;;;;;;;;4983364;28;20044;-60
2021/05/22 04:02:25;;;;;;;7.43;2.20;;;;;;;;;;4998446;28;20025;-60
2021/05/22 04:04:51;;;;;;;12.07;3.13;;;;;;;;;;4984363;28;20029;-59
2021/05/22 04:07:19;;;;;;;13.60;2.80;;;;;;;;;;5004640;28;20025;-59
2021/05/22 04:09:44;;;;;;;6.90;2.38;;;;;;;;;;4986173;28;20045;-60
2021/05/22 04:12:10;;;;;;;14.60;2.90;;;;;;;;;;4981850;28;20033;-59
2021/05/22 04:14:38;;;;;;;9.60;2.75;;;;;;;;;;4984832;28;20052;-60
2021/05/22 04:17:06;;;;;;;6.90;2.67;;;;;;;;;;4982332;28;20041;-60
2021/05/22 04:19:34;;;;;;;6.70;2.55;;;;;;;;;;5003715;28;20041;-58
2021/05/22 04:21:59;;;;;;;12.55;3.30;;;;;;;;;;4985770;28;20048;-59
2021/05/22 04:24:27;;;;;;;12.65;3.50;;;;;;;;;;5001041;28;20124;-58
2021/05/22 04:26:53;;;;;;;7.40;3.05;;;;;;;;;;5003512;28;20021;-58
2021/05/22 04:29:18;;;;;;;7.57;3.13;;;;;;;;;;4983694;28;20072;-59
2021/05/22 04:31:43;;;;;;;16.27;3.28;;;;;;;;;;4985959;28;20636;-59
2021/05/22 04:34:09;;;;;;;7.10;2.92;;;;;;;;;;5004969;28;20033;-56
2021/05/22 04:36:35;;;;;;;15.75;3.33;;;;;;;;;;5001970;28;20034;-58
2021/05/22 04:39:03;;;;;;;12.02;3.33;;;;;;;;;;4984429;28;20044;-59
2021/05/22 04:41:28;;;;;;;12.82;3.30;;;;;;;;;;5002803;28;20049;-59
2021/05/22 04:43:54;;;;;;;5.47;2.53;;;;;;;;;;5003265;28;20038;-59
2021/05/22 04:46:19;;;;;;;6.65;2.97;;;;;;;;;;5000029;28;20080;-60
2021/05/22 04:48:45;;;;;;;5.43;2.85;;;;;;;;;;5001080;28;20045;-59
2021/05/22 04:51:12;;;;;;;14.90;3.22;;;;;;;;;;5003287;28;20029;-59
2021/05/22 04:53:38;;;;;;;9.27;3.30;;;;;;;;;;4970423;28;20045;-59
2021/05/22 04:56:03;;;;;;;8.40;3.30;;;;;;;;;;5004717;28;20041;-59
2021/05/22 04:58:30;;;;;;;10.10;2.88;;;;;;;;;;5002356;28;20619;-59
2021/05/22 05:00:55;;;;;;;4.82;2.50;;;;;;;;;;4983556;28;20033;-60
2021/05/22 05:03:21;;;;;;;14.52;3.13;;;;;;;;;;4984482;28;20374;-60
2021/05/22 05:05:46;;;;;;;11.68;3.28;;;;;;;;;;4983477;28;20033;-59
2021/05/22 05:08:20;;;;;;;11.63;2.55;;;;;;;;;;5004135;28;20041;-59
2021/05/22 05:10:46;;;;;;;11.60;3.03;;;;;;;;;;4983036;28;20029;-59
2021/05/22 05:13:12;;;;;;;16.67;3.30;;;;;;;;;;4984321;28;20034;-59
2021/05/22 05:15:38;;;;;;;7.15;2.88;;;;;;;;;;5002397;28;20068;-59
2021/05/22 05:18:04;;;;;;;8.68;2.40;;;;;;;;;;5000765;28;20041;-59
2021/05/22 05:20:29;;;;;;;6.40;2.65;;;;;;;;;;4966084;28;20099;-59
2021/05/22 05:22:55;;;;;;;5.03;2.50;;;;;;;;;;5001698;28;20112;-60
2021/05/22 05:25:21;;;;;;;12.45;3.33;;;;;;;;;;5005194;28;20037;-59
2021/05/22 05:27:46;;;;;;;15.82;5.28;;;;;;;;;;5005801;28;20036;-58
2021/05/22 05:30:14;;;;;;;10.07;3.20;;;;;;;;;;5003882;28;20047;-59
2021/05/22 05:32:42;;;;;;;8.60;3.13;;;;;;;;;;4986630;28;20037;-59
2021/05/22 05:35:09;;;;;;;7.47;2.85;;;;;;;;;;4987353;28;20060;-60
2021/05/22 05:37:35;;;;;;;7.88;2.65;;;;;;;;;;4986587;28;20052;-59
2021/05/22 05:40:01;;;;;;;5.53;3.13;;;;;;;;;;5006595;28;20029;-59
2021/05/22 05:42:26;;;;;;;10.13;2.80;;;;;;;;;;4970506;28;20167;-60
2021/05/22 05:44:54;;;;;;;12.50;2.63;;;;;;;;;;4989010;28;20156;-59
2021/05/22 05:47:19;;;;;;;8.63;2.67;;;;;;;;;;4985937;28;20030;-59
2021/05/22 05:49:47;;;;;;;10.07;2.95;;;;;;;;;;4986106;28;20057;-59
2021/05/22 05:52:17;;;;;;;3.88;2.17;;;;;;;;;;4985682;28;20030;-60
2021/05/22 05:54:42;;;;;;;2.95;2.20;;;;;;;;;;5002505;28;20041;-59
2021/05/22 05:57:10;;;;;;;5.18;1.98;;;;;;;;;;4956685;28;20044;-59
2021/05/22 05:59:38;;;;;;;8.63;2.70;;;;;;;;;;5003031;28;20170;-60
2021/05/22 06:02:04;;;;;;;6.68;2.35;;;;;;;;;;4984831;28;20041;-60
2021/05/22 06:04:29;;;;;;;9.73;2.17;;;;;;;;;;5003039;28;20029;-61
2021/05/22 06:06:55;;;;;;;8.05;2.70;;;;;;;;;;5004758;28;20026;-59
2021/05/22 06:09:23;;;;;;;10.48;3.22;;;;;;;;;;5004023;28;20696;-58
2021/05/22 06:11:48;;;;;;;3.40;1.77;;;;;;;;;;4999747;28;20049;-59
2021/05/22 06:14:26;;;;;;;6.45;2.13;;;;;;;;;;5000441;28;20146;-61
2021/05/22 06:16:52;;;;;;;6.72;2.15;;;;;;;;;;4973852;28;20036;-60
2021/05/22 06:19:18;;;;;;;8.32;2.40;;;;;;;;;;4985291;28;20025;-60
2021/05/22 06:21:43;;;;;;;5.50;2.30;;;;;;;;;;5006136;28;20465;-60
2021/05/22 06:24:09;;;;;;;10.65;2.30;;;;;;;;;;5000099;28;20108;-60
2021/05/22 06:26:54;;;;;;;9.85;2.78;;;;;;;;;;4995798;28;20060;-59
2021/05/22 06:29:41;;;;;;;7.85;2.17;;;;;;;;;;4996477;28;20057;-59
2021/05/22 06:32:27;;;;;;;4.07;1.70;;;;;;;;;;5006155;28;20048;-59
2021/05/22 06:35:11;;;;;;;2.90;2.00;;;;;;;;;;4976721;28;20086;-59
2021/05/22 06:37:55;;;;;;;3.17;1.90;;;;;;;;;;4980203;28;20040;-59
2021/05/22 06:40:40;;;;;;;5.22;2.03;;;;;;;;;;4997855;28;20095;-60
2021/05/22 06:43:24;;;;;;;9.98;2.53;;;;;;;;;;5005458;28;21332;-58
2021/05/22 06:48:58;;;;;;;5.40;2.03;;;;;;;;;;5004361;28;20040;-59
2021/05/22 06:51:42;;;;;;;1.88;1.65;;;;;;;;;;5003743;28;20463;-58
2021/05/22 06:54:26;;;;;;;4.93;2.03;;;;;;;;;;4989815;28;20099;-60
2021/05/22 06:57:10;;;;;;;7.25;2.40;;;;;;;;;;5001082;28;20048;-60
2021/05/22 06:59:54;;;;;;;7.22;2.00;;;;;;;;;;5004402;28;21056;-59
2021/05/22 07:02:38;;;;;;;2.78;1.60;;;;;;;;;;5003664;28;20045;-59
2021/05/22 07:05:22;;;;;;;5.75;1.70;;;;;;;;;;5005326;28;20052;-59
2021/05/22 07:08:09;;;;;;;4.72;1.58;;;;;;;;;;4986268;28;20056;-59
2021/05/22 07:10:55;;;;;;;3.22;1.73;;;;;;;;;;5001379;28;20400;-59
2021/05/22 07:13:39;;;;;;;6.93;1.40;;;;;;;;;;5003735;28;20681;-60
2021/05/22 07:16:24;;;;;;;2.47;1.27;;;;;;;;;;5000607;28;20060;-59
2021/05/22 07:19:08;;;;;;;3.67;2.10;;;;;;;;;;5007046;28;20129;-59
2021/05/22 07:21:52;;;;;;;3.22;1.50;;;;;;;;;;5002166;28;20179;-59
2021/05/22 07:24:36;;;;;;;1.23;1.17;;;;;;;;;;5002349;28;20080;-59
2021/05/22 07:27:22;;;;;;;2.05;1.33;;;;;;;;;;4998676;28;20854;-59
2021/05/22 07:30:09;;;;;;;1.25;0.85;;;;;;;;;;5004931;28;20040;-59
2021/05/22 07:32:53;;;;;;;1.55;0.90;;;;;;;;;;5004215;28;20971;-58
2021/05/22 07:35:37;;;;;;;8.57;1.00;;;;;;;;;;5000112;28;20047;-58
2021/05/22 07:38:23;;;;;;;0.65;0.65;;;;;;;;;;5001880;28;20060;-59
2021/05/22 07:41:07;;;;;;;0.73;0.73;;;;;;;;;;5003846;28;20135;-59
2021/05/22 07:43:52;;;;;;;2.00;0.70;;;;;;;;;;5005299;28;20817;-59
2021/05/22 07:46:38;;;;;;;3.08;0.77;;;;;;;;;;4987159;28;20040;-59
2021/05/22 07:49:22;;;;;;;0.40;0.40;;;;;;;;;;4981963;28;20124;-58
2021/05/22 07:52:08;;;;;;;1.42;0.68;;;;;;;;;;5008939;28;20048;-58
2021/05/22 07:54:52;;;;;;;0.93;0.80;;;;;;;;;;5006635;28;20710;-58
2021/05/22 07:57:39;;;;;;;2.47;0.63;;;;;;;;;;4971815;28;20048;-60
2021/05/22 08:00:24;;;;;;;0.32;0.32;;;;;;;;;;5002133;28;20098;-59
2021/05/22 08:03:08;;;;;;;0.63;0.50;;;;;;;;;;5004172;28;20615;-60
2021/05/22 08:05:52;;;;;;;0.85;0.70;;;;;;;;;;5004999;28;20052;-61
2021/05/22 08:08:36;;;;;;;1.33;1.00;;;;;;;;;;4985799;28;20048;-60
2021/05/22 08:11:20;;;;;;;1.33;0.77;;;;;;;;;;5003378;28;20049;-60
2021/05/22 08:14:05;;;;;;;0.80;0.55;;;;;;;;;;5000382;28;20057;-59
2021/05/22 08:16:49;;;;;;;1.48;0.60;;;;;;;;;;4988608;28;20420;-60
2021/05/22 08:19:36;;;;;;;4.35;0.82;;;;;;;;;;5002903;28;20080;-60
2021/05/22 08:22:23;;;;;;;2.10;1.10;;;;;;;;;;4988648;28;20048;-60
2021/05/22 08:25:08;;;;;;;2.90;1.00;;;;;;;;;;5008302;28;20115;-60
2021/05/22 08:27:36;;;;;;;3.63;1.30;;;;;;;;;;5003751;28;20025;-60
2021/05/22 08:30:02;;;;;;;2.60;1.00;;;;;;;;;;4986921;28;20029;-59
2021/05/22 08:32:28;;;;;;;1.58;1.05;;;;;;;;;;5003000;28;20501;-60
2021/05/22 08:34:54;;;;;;;1.77;0.85;;;;;;;;;;5003509;28;20030;-61
2021/05/22 08:37:21;;;;;;;2.25;1.25;;;;;;;;;;4983749;28;20044;-61
2021/05/22 08:39:47;;;;;;;1.63;1.02;;;;;;;;;;4963882;28;20042;-60
2021/05/22 08:42:15;;;;;;;5.13;1.10;;;;;;;;;;4981202;28;20089;-60
2021/05/22 08:44:43;;;;;;;3.80;1.00;;;;;;;;;;4981281;28;20036;-60
2021/05/22 08:47:11;;;;;;;3.30;1.42;;;;;;;;;;4977084;28;20065;-59
2021/05/22 08:49:43;;;;;;;2.15;1.10;;;;;;;;;;4981626;28;20959;-61
2021/05/22 08:52:16;;;;;;;2.17;1.42;;;;;;;;;;4964878;28;20149;-59
2021/05/22 08:54:45;;;;;;;6.28;1.80;;;;;;;;;;4982467;28;20518;-60
2021/05/22 08:57:14;;;;;;;5.82;1.25;;;;;;;;;;4981270;28;20041;-60
2021/05/22 08:59:44;;;;;;;3.28;1.33;;;;;;;;;;4983284;28;20061;-61
2021/05/22 09:02:18;;;;;;;4.82;1.70;;;;;;;;;;4984092;28;20375;-60
2021/05/22 09:05:02;;;;;;;4.70;1.30;;;;;;;;;;4987566;28;20033;-60
2021/05/22 09:07:34;;;;;;;3.70;1.05;;;;;;;;;;4985474;28;20029;-59
2021/05/22 09:10:13;;;;;;;4.20;1.50;;;;;;;;;;4984754;28;20040;-59
2021/05/22 09:12:39;;;;;;;5.90;1.50;;;;;;;;;;5000752;28;20030;-63
2021/05/22 09:15:12;;;;;;;4.43;1.02;;;;;;;;;;4985893;28;20477;-60
2021/05/22 09:17:44;;;;;;;4.22;1.77;;;;;;;;;;4984127;28;20141;-60
2021/05/22 09:20:17;;;;;;;6.93;2.03;;;;;;;;;;4984815;28;20034;-60
2021/05/22 09:22:43;;;;;;;4.55;1.30;;;;;;;;;;4985821;28;20038;-60
2021/05/22 09:25:09;;;;;;;7.40;2.08;;;;;;;;;;4984117;28;20029;-60
2021/05/22 09:27:41;;;;;;;7.75;1.35;;;;;;;;;;4956944;28;20041;-60
2021/05/22 09:30:11;;;;;;;5.03;1.58;;;;;;;;;;4984059;28;20070;-60
2021/05/22 09:32:37;;;;;;;5.88;1.70;;;;;;;;;;4985703;28;20088;-59
2021/05/22 09:35:05;;;;;;;5.25;1.40;;;;;;;;;;4985399;28;20132;-59
2021/05/22 09:37:36;;;;;;;6.13;1.58;;;;;;;;;;4983624;28;20460;-60
2021/05/22 09:40:02;;;;;;;2.70;1.30;;;;;;;;;;4985379;28;20030;-60
2021/05/22 09:42:31;;;;;;;3.78;1.40;;;;;;;;;;4997811;28;20038;-60
2021/05/22 09:44:58;;;;;;;5.20;1.40;;;;;;;;;;4986118;28;20153;-60
2021/05/22 09:47:26;;;;;;;5.03;1.00;;;;;;;;;;4986510;28;20041;-62
2021/05/22 09:49:52;;;;;;;6.78;1.02;;;;;;;;;;4985869;28;20049;-60
2021/05/22 09:52:18;;;;;;;3.00;0.90;;;;;;;;;;4999195;28;20037;-60
2021/05/22 09:54:51;;;;;;;3.78;0.85;;;;;;;;;;4964288;28;20145;-61
2021/05/22 09:57:23;;;;;;;2.80;0.85;;;;;;;;;;4971525;28;20034;-61
2021/05/22 10:00:07;;;;;;;3.50;0.90;;;;;;;;;;5006013;28;20033;-61
2021/05/22 10:02:40;;;;;;;6.20;1.33;;;;;;;;;;4965935;28;20021;-61
2021/05/22 10:05:10;;;;;;;2.42;1.17;;;;;;;;;;5002623;28;20181;-61
2021/05/22 10:07:37;;;;;;;4.28;1.08;;;;;;;;;;5005764;28;20044;-60
2021/05/22 10:10:05;;;;;;;4.45;1.60;;;;;;;;;;5004349;28;20033;-63
2021/05/22 10:12:31;;;;;;;5.80;1.15;;;;;;;;;;4985173;28;20048;-62
2021/05/22 10:15:01;;;;;;;3.30;1.15;;;;;;;;;;5002740;28;20049;-61
2021/05/22 10:17:26;;;;;;;4.03;1.00;;;;;;;;;;4983116;28;20165;-61
2021/05/22 10:19:55;;;;;;;4.88;1.52;;;;;;;;;;5003936;28;20037;-61
2021/05/22 10:22:21;;;;;;;4.32;0.90;;;;;;;;;;5004534;28;20056;-61
2021/05/22 10:24:47;;;;;;;1.48;0.75;;;;;;;;;;5002767;28;20563;-62
2021/05/22 10:27:17;;;;;;;5.00;1.02;;;;;;;;;;5001248;28;20049;-61
2021/05/22 10:29:43;;;;;;;4.22;0.70;;;;;;;;;;4972453;28;20136;-61
2021/05/22 10:32:31;;;;;;;4.63;1.45;;;;;;;;;;4984448;28;20045;-61
2021/05/22 10:34:57;;;;;;;5.25;1.77;;;;;;;;;;5005176;28;20034;-59
2021/05/22 10:37:40;;;;;;;4.78;0.95;;;;;;;;;;4959963;28;20048;-61
2021/05/22 10:40:09;;;;;;;2.13;1.00;;;;;;;;;;4991426;28;21043;-62
2021/05/22 10:42:38;;;;;;;7.40;1.17;;;;;;;;;;4975530;28;20049;-60
2021/05/22 10:45:25;;;;;;;4.43;1.10;;;;;;;;;;4959002;28;20160;-60
2021/05/22 10:47:51;;;;;;;2.75;0.88;;;;;;;;;;4958302;28;22028;-61
2021/05/22 10:50:35;;;;;;;2.78;0.82;;;;;;;;;;4993509;28;20030;-64
2021/05/22 10:53:22;;;;;;;4.63;0.90;;;;;;;;;;4975002;28;20041;-62
2021/05/22 10:56:03;;;;;;;1.27;0.82;;;;;;;;;;4976289;28;20176;-62
2021/05/22 10:58:29;;;;;;;3.67;0.85;;;;;;;;;;4991017;28;20049;-59
2021/05/22 11:01:16;;;;;;;4.78;1.15;;;;;;;;;;4975027;28;20034;-62
2021/05/22 11:04:01;;;;;;;4.75;0.75;;;;;;;;;;4990830;28;20029;-61
2021/05/22 11:06:40;;;;;;;1.20;0.77;;;;;;;;;;4997256;28;20042;-64
2021/05/22 11:09:26;;;;;;;4.82;0.82;;;;;;;;;;4996064;28;20195;-61
2021/05/22 11:11:55;;;;;;;2.92;0.55;;;;;;;;;;4991375;28;20033;-62
2021/05/22 11:14:42;;;;;;;3.03;1.00;;;;;;;;;;4987368;28;20041;-60
2021/05/22 11:17:21;;;;;;;5.05;1.05;;;;;;;;;;4972411;28;20472;-61
2021/05/22 11:20:06;;;;;;;1.85;0.60;;;;;;;;;;4973470;28;20037;-62
2021/05/22 11:22:31;;;;;;;;;;;;;;;;;;4962242;28;20118;-60
2021/05/22 11:25:06;;;;;;;3.50;1.00;;;;;;;;;;4991800;28;19921;-61
2021/05/22 11:27:43;;;;;;;5.97;0.60;;;;;;;;;;4990758;28;20639;-60
2021/05/22 11:30:13;;;;;;;3.55;0.65;;;;;;;;;;4975859;28;20131;-62
2021/05/22 11:32:58;;;;;;;3.67;0.65;;;;;;;;;;4980358;28;20029;-62
2021/05/22 11:35:30;;;;;;;1.90;0.70;;;;;;;;;;4984878;28;20495;-61
2021/05/22 11:37:57;;;;;;;1.85;0.40;;;;;;;;;;4984361;28;20188;-62
2021/05/22 11:40:37;;;;;;;1.90;0.70;;;;;;;;;;5003609;28;20059;-61
2021/05/22 11:43:47;;;;;;;2.08;0.70;;;;;;;;;;5001737;28;20681;-63
2021/05/22 11:46:14;;;;;;;2.35;0.63;;;;;;;;;;4917018;28;20120;-63
2021/05/22 11:48:48;;;;;;;3.10;0.93;;;;;;;;;;4919125;28;20038;-63
2021/05/22 11:51:23;;;;;;;1.38;0.52;;;;;;;;;;4947436;28;20033;-63
2021/05/22 11:53:53;;;;;;;4.38;1.00;;;;;;;;;;4999902;28;20029;-62
2021/05/22 11:56:19;;;;;;;3.25;0.80;;;;;;;;;;4967281;28;20068;-62
2021/05/22 11:58:49;;;;;;;2.38;0.77;;;;;;;;;;5001189;28;20694;-61
2021/05/22 12:01:15;;;;;;;0.52;0.40;;;;;;;;;;5004315;28;20404;-63
2021/05/22 12:03:43;;;;;;;3.75;0.70;;;;;;;;;;5002393;28;20125;-61
2021/05/22 12:06:12;;;;;;;1.75;0.63;;;;;;;;;;4982541;28;20043;-60
2021/05/22 12:08:37;;;;;;;1.77;0.75;;;;;;;;;;4968058;28;20036;-60
2021/05/22 12:11:13;;;;;;;1.25;0.70;;;;;;;;;;4982871;28;20033;-60
2021/05/22 12:13:55;;;;;;;3.80;1.00;;;;;;;;;;5066571;27;20407;-62
2021/05/22 12:16:21;;;;;;;1.55;0.80;;;;;;;;;;5047926;28;20101;-62
2021/05/22 12:18:47;;;;;;;1.48;0.90;;;;;;;;;;5032677;28;20028;-61
2021/05/22 12:21:40;;;;;;;5.78;1.15;;;;;;;;;;5023670;28;20607;-61
2021/05/22 12:24:06;;;;;;;4.38;1.77;;;;;;;;;;5036312;28;20037;-59
2021/05/22 12:26:31;;;;;;;9.38;1.63;;;;;;;;;;5026091;28;20439;-61
2021/05/22 12:28:57;;;;;;;6.78;1.65;;;;;;;;;;5040365;28;20032;-62
2021/05/22 12:31:23;;;;;;;4.03;1.33;;;;;;;;;;5036985;28;20029;-61
2021/05/22 12:33:57;;;;;;;6.25;1.60;;;;;;;;;;5033352;28;20124;-60
2021/05/22 12:36:29;;;;;;;5.72;2.00;;;;;;;;;;5034836;28;20287;-59
2021/05/22 12:38:58;;;;;;;5.93;2.15;;;;;;;;;;5021976;28;20503;-60
2021/05/22 12:41:35;;;;;;;5.10;1.85;;;;;;;;;;5036353;28;20048;-59
2021/05/22 12:44:03;;;;;;;3.45;2.17;;;;;;;;;;5037851;28;20021;-60
2021/05/22 12:46:37;;;;;;;5.38;2.00;;;;;;;;;;5016461;28;20028;-63
2021/05/22 12:49:07;;;;;;;2.55;1.50;;;;;;;;;;5051251;28;20029;-60
2021/05/22 12:51:33;;;;;;;7.32;2.25;;;;;;;;;;5031836;28;20191;-62
2021/05/22 12:54:01;;;;;;;6.65;1.35;;;;;;;;;;5051277;28;20032;-61
2021/05/22 12:56:26;;;;;;;16.67;1.70;;;;;;;;;;5050426;28;20406;-63
2021/05/22 12:59:10;;;;;;;3.25;1.50;;;;;;;;;;5034493;28;20032;-62
2021/05/22 13:01:36;;;;;;;3.22;2.10;;;;;;;;;;5014854;28;20025;-61
2021/05/22 13:04:03;;;;;;;6.10;1.90;;;;;;;;;;5032646;28;20032;-60
2021/05/22 13:06:29;;;;;;;3.25;1.40;;;;;;;;;;5035774;28;21125;-61
2021/05/22 13:09:07;;;;;;;3.78;2.40;;;;;;;;;;5034439;28;20040;-58
2021/05/22 13:11:33;;;;;;;5.47;1.83;;;;;;;;;;5032737;28;20051;-60
2021/05/22 13:14:04;;;;;;;4.80;2.00;;;;;;;;;;5049617;28;20026;-61
2021/05/22 13:16:32;;;;;;;3.50;2.13;;;;;;;;;;5032505;28;20020;-63
2021/05/22 13:18:58;;;;;;;4.00;1.77;;;;;;;;;;5050848;28;20040;-61
2021/05/22 13:21:31;;;;;;;4.15;1.63;;;;;;;;;;5035992;28;20025;-62
2021/05/22 13:24:10;;;;;;;5.18;2.20;;;;;;;;;;5028014;28;20039;-62
2021/05/22 13:26:35;;;;;;;7.47;2.55;;;;;;;;;;5037333;28;20036;-59
2021/05/22 13:29:03;;;;;;;7.35;2.30;;;;;;;;;;5019790;28;20025;-62
2021/05/22 13:31:30;;;;;;;5.60;2.10;;;;;;;;;;5020724;28;20022;-62
2021/05/22 13:34:03;;;;;;;7.32;2.60;;;;;;;;;;5021177;28;20111;-63
2021/05/22 13:36:29;;;;;;;5.18;2.33;;;;;;;;;;5009263;28;20033;-61
2021/05/22 13:38:56;;;;;;;10.48;2.85;;;;;;;;;;5022709;28;20025;-62
2021/05/22 13:41:35;;;;;;;4.43;2.35;;;;;;;;;;5019771;28;20570;-60
2021/05/22 13:44:04;;;;;;;7.53;2.67;;;;;;;;;;5021540;28;20048;-59
2021/05/22 13:46:34;;;;;;;12.20;2.53;;;;;;;;;;5020768;28;20037;-61
2021/05/22 13:49:01;;;;;;;13.15;2.97;;;;;;;;;;5020097;28;20148;-59
2021/05/22 13:51:27;;;;;;;4.82;1.88;;;;;;;;;;5019740;28;20033;-60
2021/05/22 13:53:53;;;;;;;3.22;1.77;;;;;;;;;;5019030;28;20638;-60
2021/05/22 13:56:20;;;;;;;4.85;2.15;;;;;;;;;;5012563;28;20784;-62
2021/05/22 13:58:51;;;;;;;4.63;1.55;;;;;;;;;;5020729;28;22108;-61
2021/05/22 14:01:17;;;;;;;8.05;1.90;;;;;;;;;;5017619;28;20124;-61
2021/05/22 14:03:43;;;;;;;10.50;2.15;;;;;;;;;;5020716;28;20040;-62
2021/05/22 14:06:16;;;;;;;4.57;1.67;;;;;;;;;;5035174;28;20060;-60
2021/05/22 14:08:42;;;;;;;4.47;1.38;;;;;;;;;;5022099;28;20040;-63
2021/05/22 14:11:07;;;;;;;6.18;2.08;;;;;;;;;;5017141;28;20033;-60
2021/05/22 14:13:33;;;;;;;6.95;1.63;;;;;;;;;;5018785;28;20135;-61
2021/05/22 14:16:00;;;;;;;8.32;1.85;;;;;;;;;;5021377;28;20048;-60
2021/05/22 14:18:25;;;;;;;2.03;1.77;;;;;;;;;;5019572;28;21968;-61
2021/05/22 14:20:52;;;;;;;2.83;1.92;;;;;;;;;;5007700;28;20480;-61
2021/05/22 14:23:20;;;;;;;9.15;2.47;;;;;;;;;;5019451;28;20583;-60
2021/05/22 14:25:48;;;;;;;8.50;2.17;;;;;;;;;;5021254;28;20117;-63
2021/05/22 14:28:16;;;;;;;11.52;2.75;;;;;;;;;;5033430;28;20031;-61
2021/05/22 14:30:43;;;;;;;14.35;2.70;;;;;;;;;;4999441;28;20068;-61
2021/05/22 14:33:09;;;;;;;5.70;1.88;;;;;;;;;;5020887;28;20762;-61
2021/05/22 14:35:36;;;;;;;9.75;2.20;;;;;;;;;;5016887;28;20036;-61
2021/05/22 14:38:02;;;;;;;10.73;2.28;;;;;;;;;;5021863;28;20016;-62
2021/05/22 14:40:28;;;;;;;9.27;1.98;;;;;;;;;;5033862;28;20028;-63
2021/05/22 14:42:54;;;;;;;7.97;2.03;;;;;;;;;;5020244;28;20045;-60
2021/05/22 14:45:25;;;;;;;5.82;1.58;;;;;;;;;;5026444;28;20110;-62
2021/05/22 14:47:52;;;;;;;7.07;1.73;;;;;;;;;;5018836;28;20083;-62
2021/05/22 14:50:18;;;;;;;9.85;1.67;;;;;;;;;;5019775;28;20049;-58
2021/05/22 14:52:44;;;;;;;4.15;1.88;;;;;;;;;;5018926;28;20033;-61
2021/05/22 14:55:10;;;;;;;15.55;1.88;;;;;;;;;;5034788;28;20037;-60
2021/05/22 14:57:36;;;;;;;6.00;1.70;;;;;;;;;;5035264;28;20030;-61
2021/05/22 15:00:03;;;;;;;7.53;1.70;;;;;;;;;;5003422;28;20025;-59
2021/05/22 15:02:31;;;;;;;8.80;1.48;;;;;;;;;;5022207;28;20112;-61
2021/05/22 15:04:57;;;;;;;3.63;1.95;;;;;;;;;;5019991;28;20098;-59